createdAt,value
2019-03-06T00:00:40.230Z,8.77
2019-03-06T00:03:06.626Z,8.60
2019-03-06T00:05:32.790Z,10.10
2019-03-06T00:07:58.962Z,9.23
2019-03-06T00:10:27.557Z,6.97
2019-03-06T00:12:53.734Z,10.97
2019-03-06T00:15:19.899Z,12.53
2019-03-06T00:17:46.102Z,9.03
2019-03-06T00:20:12.266Z,9.83
2019-03-06T00:22:38.411Z,11.30
2019-03-06T00:25:05.510Z,13.60
2019-03-06T00:27:31.682Z,9.20
2019-03-06T00:29:58.374Z,9.47
2019-03-06T00:32:24.572Z,10.83
2019-03-06T00:34:51.837Z,8.57
2019-03-06T00:37:18.008Z,8.53
2019-03-06T00:39:46.115Z,8.33
2019-03-06T00:42:12.387Z,11.67
2019-03-06T00:44:39.530Z,9.27
2019-03-06T00:47:05.724Z,8.17
2019-03-06T00:49:31.889Z,8.83
2019-03-06T00:51:58.055Z,10.33
2019-03-06T00:54:24.247Z,9.83
2019-03-06T00:56:50.418Z,10.20
2019-03-06T00:59:16.586Z,7.03
2019-03-06T01:01:42.881Z,8.67
2019-03-06T01:04:09.054Z,10.03
2019-03-06T01:06:35.221Z,8.87
2019-03-06T01:09:01.417Z,9.40
2019-03-06T01:11:27.581Z,9.23
2019-03-06T01:13:53.750Z,8.97
2019-03-06T01:16:19.947Z,8.10
2019-03-06T01:18:46.119Z,8.20
2019-03-06T01:21:12.387Z,6.97
2019-03-06T01:23:38.585Z,10.37
2019-03-06T01:26:04.751Z,9.73
2019-03-06T01:28:31.021Z,8.77
2019-03-06T01:30:57.211Z,8.20
2019-03-06T01:33:25.342Z,9.20
2019-03-06T01:35:53.612Z,9.27
2019-03-06T01:38:38.313Z,9.67
2019-03-06T01:41:08.924Z,9.13
2019-03-06T01:43:52.095Z,9.80
2019-03-06T01:46:18.400Z,9.30
2019-03-06T01:48:44.562Z,8.23
2019-03-06T01:51:11.727Z,3.10
2019-03-06T01:53:38.127Z,5.17
2019-03-06T01:56:04.391Z,7.83
2019-03-06T01:58:30.688Z,7.70
2019-03-06T02:00:56.952Z,6.57
2019-03-06T02:03:23.119Z,7.93
2019-03-06T02:05:49.344Z,9.33
2019-03-06T02:08:15.621Z,5.93
2019-03-06T02:10:41.875Z,8.23
2019-03-06T02:13:08.065Z,7.33
2019-03-06T02:15:34.327Z,8.80
2019-03-06T02:18:00.502Z,8.40
2019-03-06T02:20:26.788Z,7.73
2019-03-06T02:22:52.952Z,6.80
2019-03-06T02:25:19.115Z,5.50
2019-03-06T02:27:45.332Z,5.97
2019-03-06T02:30:17.370Z,7.90
2019-03-06T02:32:43.537Z,7.33
2019-03-06T02:35:09.731Z,6.80
2019-03-06T02:37:35.894Z,8.53
2019-03-06T02:40:03.872Z,8.90
2019-03-06T02:42:30.079Z,8.50
2019-03-06T02:44:56.334Z,10.60
2019-03-06T02:47:22.553Z,7.93
2019-03-06T02:49:48.766Z,4.93
2019-03-06T02:52:14.934Z,5.43
2019-03-06T02:54:41.198Z,7.00
2019-03-06T02:57:07.899Z,8.50
2019-03-06T02:59:35.973Z,7.17
2019-03-06T03:02:04.033Z,7.13
2019-03-06T03:04:32.134Z,4.87
2019-03-06T03:07:00.199Z,7.67
2019-03-06T03:09:26.373Z,9.70
2019-03-06T03:11:53.075Z,6.90
2019-03-06T03:14:19.234Z,6.37
2019-03-06T03:16:45.394Z,5.37
2019-03-06T03:19:12.025Z,6.13
2019-03-06T03:21:38.189Z,5.17
2019-03-06T03:24:04.373Z,4.67
2019-03-06T03:26:30.669Z,6.00
2019-03-06T03:28:56.836Z,4.90
2019-03-06T03:31:23.334Z,5.93
2019-03-06T03:33:49.580Z,6.00
2019-03-06T03:36:15.794Z,7.30
2019-03-06T03:38:41.961Z,7.53
2019-03-06T03:41:08.157Z,7.13
2019-03-06T03:43:34.539Z,5.33
2019-03-06T03:46:00.685Z,5.63
2019-03-06T03:48:26.991Z,8.17
2019-03-06T03:50:53.154Z,4.43
2019-03-06T03:53:19.310Z,9.37
2019-03-06T03:55:45.516Z,6.37
2019-03-06T03:58:11.681Z,5.30
2019-03-06T04:00:37.844Z,9.00
2019-03-06T04:03:04.143Z,5.30
2019-03-06T04:05:30.308Z,7.37
2019-03-06T04:07:56.475Z,4.33
2019-03-06T04:10:22.676Z,5.87
2019-03-06T04:12:48.837Z,5.57
2019-03-06T04:15:17.092Z,4.77
2019-03-06T04:17:43.398Z,6.70
2019-03-06T04:20:12.359Z,7.30
2019-03-06T04:22:38.637Z,4.00
2019-03-06T04:25:05.829Z,7.47
2019-03-06T04:27:32.085Z,6.57
2019-03-06T04:29:58.355Z,6.30
2019-03-06T04:32:24.541Z,7.73
2019-03-06T04:34:50.807Z,8.10
2019-03-06T04:37:17.069Z,3.60
2019-03-06T04:39:43.276Z,7.30
2019-03-06T04:42:09.442Z,4.77
2019-03-06T04:44:35.604Z,5.80
2019-03-06T04:47:02.003Z,4.87
2019-03-06T04:49:28.322Z,6.90
2019-03-06T04:51:54.598Z,11.13
2019-03-06T04:54:20.797Z,6.03
2019-03-06T04:56:46.962Z,6.80
2019-03-06T04:59:13.118Z,7.07
2019-03-06T05:01:39.515Z,3.87
2019-03-06T05:04:05.789Z,3.90
2019-03-06T05:06:32.064Z,3.63
2019-03-06T05:08:58.460Z,4.27
2019-03-06T05:11:24.639Z,3.67
2019-03-06T05:13:50.800Z,5.93
2019-03-06T05:16:16.988Z,10.70
2019-03-06T05:18:51.058Z,8.50
2019-03-06T05:21:17.212Z,9.43
2019-03-06T05:23:43.409Z,5.60
2019-03-06T05:26:09.584Z,4.60
2019-03-06T05:28:35.738Z,5.30
2019-03-06T05:31:01.936Z,5.37
2019-03-06T05:33:28.782Z,5.27
2019-03-06T05:36:04.882Z,6.20
2019-03-06T05:38:34.745Z,7.73
2019-03-06T05:41:00.908Z,22.13
2019-03-06T05:43:27.602Z,20.90
2019-03-06T05:45:53.759Z,12.40
2019-03-06T05:48:19.925Z,14.37
2019-03-06T05:50:46.317Z,15.63
2019-03-06T05:53:12.480Z,9.37
2019-03-06T05:55:38.651Z,6.93
2019-03-06T05:58:04.841Z,6.40
2019-03-06T06:00:31.126Z,7.27
2019-03-06T06:02:57.396Z,6.23
2019-03-06T06:05:23.707Z,10.30
2019-03-06T06:07:49.865Z,5.70
2019-03-06T06:10:16.146Z,7.80
2019-03-06T06:12:42.334Z,9.70
2019-03-06T06:15:13.298Z,8.40
2019-03-06T06:17:39.449Z,7.90
2019-03-06T06:20:08.640Z,9.23
2019-03-06T06:22:36.699Z,8.30
2019-03-06T06:25:03.561Z,11.53
2019-03-06T06:27:29.960Z,32.37
2019-03-06T06:29:56.129Z,30.47
2019-03-06T06:32:22.694Z,11.17
2019-03-06T06:34:48.888Z,15.60
2019-03-06T06:37:15.051Z,12.33
2019-03-06T06:39:41.222Z,37.97
2019-03-06T06:42:07.910Z,17.97
2019-03-06T06:44:34.072Z,15.13
2019-03-06T06:47:00.246Z,11.13
2019-03-06T06:49:26.467Z,23.30
2019-03-06T06:52:04.979Z,36.97
2019-03-06T06:54:38.046Z,14.37
2019-03-06T06:57:22.802Z,10.77
2019-03-06T06:59:58.667Z,7.13
2019-03-06T07:02:42.591Z,12.90
2019-03-06T07:05:15.764Z,19.07
2019-03-06T07:08:00.155Z,15.27
2019-03-06T07:10:30.829Z,28.60
2019-03-06T07:13:13.753Z,18.10
2019-03-06T07:15:44.675Z,13.67
2019-03-06T07:18:12.739Z,15.47
2019-03-06T07:20:55.884Z,7.33
2019-03-06T07:23:32.951Z,10.30
2019-03-06T07:26:03.902Z,4.93
2019-03-06T07:28:40.713Z,3.57
2019-03-06T07:31:26.860Z,3.37
2019-03-06T07:33:55.031Z,4.70
2019-03-06T07:36:39.401Z,4.97
2019-03-06T07:39:08.851Z,4.53
2019-03-06T07:41:37.931Z,4.73
2019-03-06T07:44:29.919Z,5.37
2019-03-06T07:47:09.518Z,7.50
2019-03-06T07:49:55.773Z,4.17
2019-03-06T07:52:26.427Z,4.40
2019-03-06T07:55:10.903Z,5.47
2019-03-06T07:58:14.476Z,5.40
2019-03-06T08:00:40.772Z,7.17
2019-03-06T08:03:06.937Z,5.53
2019-03-06T08:05:33.112Z,7.57
2019-03-06T08:07:59.299Z,6.33
2019-03-06T08:10:27.388Z,6.73
2019-03-06T08:12:55.439Z,7.67
2019-03-06T08:15:32.245Z,5.37
2019-03-06T08:18:16.786Z,6.27
2019-03-06T08:20:44.881Z,8.10
2019-03-06T08:23:15.721Z,6.53
2019-03-06T08:25:45.133Z,5.13
2019-03-06T08:28:12.223Z,8.73
2019-03-06T08:30:43.424Z,8.93
2019-03-06T08:33:17.957Z,4.50
2019-03-06T08:35:37.817Z,4.73
2019-03-06T08:38:03.981Z,5.10
2019-03-06T08:40:30.136Z,4.00
2019-03-06T08:42:59.577Z,2.30
2019-03-06T08:45:30.583Z,2.40
2019-03-06T08:48:10.682Z,2.03
2019-03-06T08:50:41.995Z,1.93
2019-03-06T08:53:10.104Z,2.17
2019-03-06T08:55:43.844Z,2.93
2019-03-06T08:58:18.307Z,2.03
2019-03-06T09:00:54.169Z,2.00
2019-03-06T09:03:24.728Z,9.73
2019-03-06T09:06:09.698Z,4.33
2019-03-06T09:08:54.878Z,2.53
2019-03-06T09:11:22.978Z,3.90
2019-03-06T09:13:53.792Z,2.63
2019-03-06T09:16:33.940Z,2.70
2019-03-06T09:19:16.940Z,2.10
2019-03-06T09:21:47.547Z,2.57
2019-03-06T09:24:18.691Z,2.90
2019-03-06T09:26:46.762Z,2.40
2019-03-06T09:29:26.781Z,2.40
2019-03-06T09:31:55.195Z,2.40
2019-03-06T09:34:32.389Z,4.07
2019-03-06T09:37:16.982Z,5.73
2019-03-06T09:39:47.623Z,3.33
2019-03-06T09:42:30.958Z,2.20
2019-03-06T09:45:01.572Z,3.23
2019-03-06T09:47:35.417Z,3.97
2019-03-06T09:50:06.162Z,3.17
2019-03-06T09:52:36.029Z,2.87
2019-03-06T09:55:13.553Z,4.20
2019-03-06T09:57:57.972Z,2.97
2019-03-06T10:00:44.038Z,4.83
2019-03-06T10:03:12.131Z,2.10
2019-03-06T10:05:40.195Z,2.50
2019-03-06T10:08:13.897Z,2.83
2019-03-06T10:10:58.585Z,3.23
2019-03-06T10:13:42.128Z,4.13
2019-03-06T10:16:20.082Z,4.40
2019-03-06T10:18:54.054Z,3.70
2019-03-06T10:21:20.224Z,5.37
2019-03-06T10:23:46.379Z,5.40
2019-03-06T10:26:12.571Z,3.37
2019-03-06T10:28:38.735Z,4.37
2019-03-06T10:31:05.401Z,3.23
2019-03-06T10:33:31.595Z,5.30
2019-03-06T10:35:58.192Z,2.50
2019-03-06T10:38:24.576Z,2.40
2019-03-06T10:40:50.760Z,6.67
2019-03-06T10:43:17.049Z,6.33
2019-03-06T10:45:43.211Z,6.13
2019-03-06T10:48:09.511Z,6.20
2019-03-06T10:50:35.775Z,2.00
2019-03-06T10:53:01.942Z,5.67
2019-03-06T10:55:28.413Z,4.33
2019-03-06T10:57:54.771Z,1.70
2019-03-06T11:00:31.485Z,3.53
2019-03-06T11:02:57.839Z,4.20
2019-03-06T11:05:28.675Z,8.23
2019-03-06T11:07:55.566Z,2.67
2019-03-06T11:10:25.218Z,3.43
2019-03-06T11:12:50.210Z,8.33
2019-03-06T11:15:18.730Z,2.77
2019-03-06T11:17:45.263Z,3.60
2019-03-06T11:20:15.529Z,3.47
2019-03-06T11:22:41.744Z,3.77
2019-03-06T11:25:11.608Z,5.87
2019-03-06T11:27:37.785Z,4.57
2019-03-06T11:30:10.658Z,5.93
2019-03-06T11:32:36.816Z,5.73
2019-03-06T11:35:06.378Z,5.60
2019-03-06T11:37:32.569Z,3.67
2019-03-06T11:39:58.724Z,6.10
2019-03-06T11:42:24.879Z,2.93
2019-03-06T11:44:51.106Z,3.77
2019-03-06T11:47:17.751Z,3.67
2019-03-06T11:49:44.023Z,2.37
2019-03-06T11:52:10.211Z,6.20
2019-03-06T11:54:36.370Z,4.63
2019-03-06T11:57:03.087Z,3.53
2019-03-06T11:59:29.281Z,3.20
2019-03-06T12:01:55.535Z,5.53
2019-03-06T12:04:21.997Z,3.63
2019-03-06T12:06:48.190Z,4.50
2019-03-06T12:09:25.343Z,7.50
2019-03-06T12:11:51.536Z,3.47
2019-03-06T12:14:17.805Z,4.27
2019-03-06T12:16:43.960Z,3.40
2019-03-06T12:19:10.812Z,2.60
2019-03-06T12:21:36.984Z,4.23
2019-03-06T12:24:03.136Z,5.87
2019-03-06T12:26:29.442Z,5.80
2019-03-06T12:28:55.595Z,5.70
2019-03-06T12:31:21.891Z,5.70
2019-03-06T12:33:48.076Z,9.63
2019-03-06T12:36:14.570Z,5.63
2019-03-06T12:38:40.731Z,8.10
2019-03-06T12:41:06.923Z,5.33
2019-03-06T12:43:33.281Z,5.10
2019-03-06T12:46:23.386Z,5.73
2019-03-06T12:48:48.091Z,5.87
2019-03-06T12:51:14.346Z,3.00
2019-03-06T12:53:40.941Z,6.07
2019-03-06T12:56:07.102Z,3.97
2019-03-06T12:58:33.273Z,3.27
2019-03-06T13:00:59.509Z,2.93
2019-03-06T13:03:25.656Z,5.13
2019-03-06T13:05:51.814Z,3.50
2019-03-06T13:08:19.907Z,4.03
2019-03-06T13:10:46.069Z,4.20
2019-03-06T13:13:12.527Z,5.57
2019-03-06T13:15:38.716Z,3.47
2019-03-06T13:18:04.972Z,4.57
2019-03-06T13:20:31.124Z,3.77
2019-03-06T13:22:57.420Z,3.80
2019-03-06T13:25:24.190Z,3.80
2019-03-06T13:27:54.815Z,4.37
2019-03-06T13:30:21.874Z,4.23
2019-03-06T13:32:55.739Z,3.73
2019-03-06T13:35:22.095Z,5.10
2019-03-06T13:37:51.110Z,5.97
2019-03-06T13:40:18.762Z,2.87
2019-03-06T13:42:45.324Z,5.23
2019-03-06T13:45:13.823Z,2.00
2019-03-06T13:47:40.083Z,3.93
2019-03-06T13:50:08.546Z,4.23
2019-03-06T13:52:34.864Z,2.07
2019-03-06T13:55:01.022Z,3.33
2019-03-06T13:57:27.188Z,2.97
2019-03-06T13:59:53.432Z,5.93
2019-03-06T14:02:19.803Z,3.60
2019-03-06T14:04:46.364Z,1.90
2019-03-06T14:07:12.647Z,2.60
2019-03-06T14:09:38.812Z,2.00
2019-03-06T14:12:05.073Z,4.53
2019-03-06T14:14:31.272Z,3.30
2019-03-06T14:16:57.531Z,3.43
2019-03-06T14:19:27.571Z,2.70
2019-03-06T14:21:53.976Z,5.03
2019-03-06T14:24:20.416Z,6.13
2019-03-06T14:26:46.570Z,5.43
2019-03-06T14:29:12.769Z,5.70
2019-03-06T14:31:38.929Z,6.30
2019-03-06T14:34:06.371Z,7.87
2019-03-06T14:36:32.530Z,11.97
2019-03-06T14:38:58.696Z,8.60
2019-03-06T14:41:24.857Z,6.07
2019-03-06T14:43:51.053Z,6.23
2019-03-06T14:46:17.326Z,10.97
2019-03-06T14:48:43.490Z,4.27
2019-03-06T14:51:09.786Z,8.63
2019-03-06T14:53:35.946Z,7.53
2019-03-06T14:56:02.106Z,9.83
2019-03-06T14:58:28.413Z,10.33
2019-03-06T15:00:54.920Z,8.60
2019-03-06T15:03:21.181Z,14.73
2019-03-06T15:05:47.585Z,7.10
2019-03-06T15:08:13.853Z,9.67
2019-03-06T15:10:42.922Z,10.73
2019-03-06T15:13:08.133Z,11.70
2019-03-06T15:15:34.283Z,11.30
2019-03-06T15:18:00.445Z,10.23
2019-03-06T15:20:28.659Z,10.17
2019-03-06T15:22:56.113Z,12.67
2019-03-06T15:25:23.876Z,8.13
2019-03-06T15:27:50.172Z,8.50
2019-03-06T15:30:17.703Z,17.83
2019-03-06T15:32:44.001Z,12.87
2019-03-06T15:35:11.208Z,16.80
2019-03-06T15:37:38.068Z,6.93
2019-03-06T15:40:10.082Z,16.03
2019-03-06T15:42:36.379Z,13.00
2019-03-06T15:45:04.236Z,16.13
2019-03-06T15:47:33.680Z,18.33
2019-03-06T15:49:58.633Z,16.20
2019-03-06T15:52:25.439Z,9.37
2019-03-06T15:54:52.769Z,14.60
2019-03-06T15:57:19.382Z,19.50
2019-03-06T15:59:45.553Z,9.03
2019-03-06T16:02:11.955Z,16.73
2019-03-06T16:04:38.161Z,9.93
2019-03-06T16:07:04.436Z,13.53
2019-03-06T16:09:31.108Z,12.43
2019-03-06T16:11:57.296Z,11.80
2019-03-06T16:14:23.463Z,13.67
2019-03-06T16:16:49.664Z,19.97
2019-03-06T16:19:15.974Z,13.83
2019-03-06T16:21:42.130Z,9.90
2019-03-06T16:24:09.801Z,12.27
2019-03-06T16:26:36.183Z,18.97
2019-03-06T16:29:02.840Z,14.23
2019-03-06T16:31:29.100Z,17.00
2019-03-06T16:33:55.400Z,16.00
2019-03-06T16:36:21.559Z,12.53
2019-03-06T16:38:47.722Z,17.27
2019-03-06T16:41:14.006Z,20.50
2019-03-06T16:43:40.158Z,11.53
2019-03-06T16:46:06.415Z,11.47
2019-03-06T16:48:32.612Z,16.07
2019-03-06T16:50:58.976Z,11.03
2019-03-06T16:53:25.133Z,8.47
2019-03-06T16:55:51.328Z,14.27
2019-03-06T16:58:17.482Z,17.87
2019-03-06T17:00:44.058Z,15.27
2019-03-06T17:03:10.377Z,14.37
2019-03-06T17:05:37.427Z,22.90
2019-03-06T17:08:04.304Z,19.17
2019-03-06T17:10:31.993Z,8.60
2019-03-06T17:12:58.247Z,17.43
2019-03-06T17:15:25.719Z,15.40
2019-03-06T17:17:52.511Z,17.07
2019-03-06T17:20:21.378Z,20.17
2019-03-06T17:22:48.259Z,21.70
2019-03-06T17:25:14.925Z,21.57
2019-03-06T17:27:41.188Z,25.13
2019-03-06T17:30:13.630Z,21.27
2019-03-06T17:32:55.795Z,29.80
2019-03-06T17:35:23.555Z,19.53
2019-03-06T17:37:50.011Z,21.67
2019-03-06T17:40:16.199Z,21.43
2019-03-06T17:42:42.352Z,23.53
2019-03-06T17:45:09.181Z,13.70
2019-03-06T17:47:35.506Z,18.70
2019-03-06T17:50:01.665Z,23.77
2019-03-06T17:52:27.815Z,18.70
2019-03-06T17:54:54.225Z,16.87
2019-03-06T17:57:20.389Z,28.90
2019-03-06T17:59:46.647Z,16.70
2019-03-06T18:02:12.946Z,15.70
2019-03-06T18:04:39.212Z,21.25
2019-03-06T18:07:06.138Z,14.87
2019-03-06T18:09:32.563Z,27.50
2019-03-06T18:11:59.218Z,20.73
2019-03-06T18:14:25.379Z,11.13
2019-03-06T18:16:51.663Z,15.87
2019-03-06T18:19:17.932Z,11.53
2019-03-06T18:21:44.087Z,19.10
2019-03-06T18:24:10.279Z,20.43
2019-03-06T18:26:36.553Z,27.10
2019-03-06T18:29:02.632Z,80.37
2019-03-06T18:31:29.352Z,45.30
2019-03-06T18:33:55.605Z,31.87
2019-03-06T18:36:21.767Z,34.23
2019-03-06T18:38:48.459Z,24.37
2019-03-06T18:41:14.632Z,23.47
2019-03-06T18:43:40.787Z,23.50
2019-03-06T18:46:07.083Z,36.77
2019-03-06T18:48:33.246Z,38.33
2019-03-06T18:50:59.403Z,18.60
2019-03-06T18:53:25.764Z,14.73
2019-03-06T18:55:51.978Z,23.40
2019-03-06T18:58:18.140Z,26.40
2019-03-06T19:00:44.338Z,19.50
2019-03-06T19:03:10.510Z,23.50
2019-03-06T19:05:37.065Z,64.47
2019-03-06T19:08:03.522Z,58.87
2019-03-06T19:10:29.696Z,14.60
2019-03-06T19:12:55.851Z,63.23
2019-03-06T19:15:24.642Z,66.07
2019-03-06T19:17:50.796Z,56.43
2019-03-06T19:20:18.746Z,48.70
2019-03-06T19:22:45.670Z,24.50
2019-03-06T19:25:12.225Z,14.83
2019-03-06T19:27:38.400Z,15.43
2019-03-06T19:30:17.559Z,17.10
2019-03-06T19:32:44.122Z,10.27
2019-03-06T19:35:10.398Z,11.00
2019-03-06T19:37:36.587Z,10.27
2019-03-06T19:40:05.451Z,24.90
2019-03-06T19:42:31.618Z,24.90
2019-03-06T19:44:58.216Z,24.27
2019-03-06T19:47:24.376Z,17.47
2019-03-06T19:49:50.537Z,21.43
2019-03-06T19:52:16.737Z,18.37
2019-03-06T19:54:42.891Z,27.83
2019-03-06T19:57:09.066Z,33.90
2019-03-06T19:59:35.264Z,27.50
2019-03-06T20:02:01.417Z,38.60
2019-03-06T20:04:27.597Z,31.73
2019-03-06T20:06:54.360Z,20.90
2019-03-06T20:09:25.250Z,26.53
2019-03-06T20:11:51.896Z,33.47
2019-03-06T20:14:18.345Z,25.43
2019-03-06T20:16:44.497Z,22.00
2019-03-06T20:19:10.668Z,27.80
2019-03-06T20:21:36.883Z,30.63
2019-03-06T20:24:03.644Z,27.97
2019-03-06T20:26:29.806Z,30.77
2019-03-06T20:28:56.018Z,28.40
2019-03-06T20:31:22.177Z,32.43
2019-03-06T20:33:48.345Z,28.17
2019-03-06T20:36:14.554Z,33.37
2019-03-06T20:38:40.824Z,24.30
2019-03-06T20:41:06.978Z,23.50
2019-03-06T20:43:33.173Z,27.90
2019-03-06T20:45:59.836Z,28.63
2019-03-06T20:48:26.136Z,37.40
2019-03-06T20:50:52.338Z,28.07
2019-03-06T20:53:18.494Z,23.23
2019-03-06T20:55:44.653Z,24.10
2019-03-06T20:58:10.847Z,17.67
2019-03-06T21:00:37.013Z,38.87
2019-03-06T21:03:03.178Z,16.93
2019-03-06T21:05:29.367Z,26.53
2019-03-06T21:07:55.583Z,19.37
2019-03-06T21:10:21.744Z,23.97
2019-03-06T21:12:47.938Z,28.10
2019-03-06T21:15:17.701Z,30.93
2019-03-06T21:17:43.862Z,33.13
2019-03-06T21:20:15.508Z,34.07
2019-03-06T21:22:41.779Z,31.07
2019-03-06T21:25:10.848Z,24.93
2019-03-06T21:27:37.052Z,30.03
2019-03-06T21:30:07.025Z,24.57
2019-03-06T21:32:33.193Z,21.40
2019-03-06T21:34:59.391Z,22.87
2019-03-06T21:37:25.562Z,19.50
2019-03-06T21:39:51.953Z,26.67
2019-03-06T21:42:18.151Z,19.77
2019-03-06T21:44:44.307Z,21.97
2019-03-06T21:47:10.470Z,37.53
2019-03-06T21:49:36.667Z,34.07
2019-03-06T21:52:03.127Z,17.67
2019-03-06T21:54:29.303Z,11.30
2019-03-06T21:56:55.503Z,62.63
2019-03-06T21:59:22.574Z,27.93
2019-03-06T22:01:48.738Z,42.27
2019-03-06T22:04:15.038Z,52.10
2019-03-06T22:06:42.619Z,16.23
2019-03-06T22:09:11.229Z,20.40
2019-03-06T22:11:37.439Z,20.77
2019-03-06T22:14:03.613Z,14.30
2019-03-06T22:16:29.777Z,16.70
2019-03-06T22:18:55.983Z,20.30
2019-03-06T22:21:22.152Z,19.50
2019-03-06T22:23:48.308Z,25.87
2019-03-06T22:26:14.504Z,14.17
2019-03-06T22:28:40.976Z,15.57
2019-03-06T22:31:07.147Z,18.60
2019-03-06T22:33:33.340Z,28.57
2019-03-06T22:35:59.495Z,19.40
2019-03-06T22:38:25.653Z,22.60
2019-03-06T22:40:51.850Z,22.63
2019-03-06T22:43:18.013Z,19.37
2019-03-06T22:45:44.180Z,14.40
2019-03-06T22:48:10.393Z,18.53
2019-03-06T22:50:36.552Z,11.57
2019-03-06T22:53:02.711Z,9.70
2019-03-06T22:55:28.911Z,11.47
2019-03-06T22:57:55.074Z,49.20
2019-03-06T23:00:31.860Z,19.07
2019-03-06T23:02:58.333Z,13.37
2019-03-06T23:05:30.849Z,34.90
2019-03-06T23:07:57.139Z,27.93
2019-03-06T23:10:23.321Z,9.37
2019-03-06T23:12:49.484Z,10.00
2019-03-06T23:15:15.683Z,11.60
2019-03-06T23:17:41.852Z,14.57
2019-03-06T23:20:08.016Z,21.00
2019-03-06T23:22:34.207Z,10.40
2019-03-06T23:25:00.359Z,9.03
2019-03-06T23:27:26.625Z,14.97
2019-03-06T23:29:52.820Z,10.57
2019-03-06T23:32:18.974Z,10.27
2019-03-06T23:34:45.239Z,12.10
2019-03-06T23:37:11.433Z,9.33
2019-03-06T23:39:37.787Z,7.73
2019-03-06T23:42:04.750Z,8.90
2019-03-06T23:44:30.947Z,6.47
2019-03-06T23:46:57.096Z,7.20
2019-03-06T23:49:23.251Z,7.80
2019-03-06T23:51:51.352Z,14.27
2019-03-06T23:54:19.395Z,8.23
2019-03-06T23:56:45.570Z,6.73
2019-03-06T23:59:11.759Z,7.23
